sensor_id;sensor_type;location;lat;lon;timestamp;pressure;altitude;pressure_sealevel;temperature;humidity
42601;BME280;28229;48.856;9.088;2023-03-26T00:01:20;97474.47;;;6.28;98.78
42601;BME280;28229;48.856;9.088;2023-03-26T00:03:49;97468.44;;;6.15;99.08
42601;BME280;28229;48.856;9.088;2023-03-26T00:06:25;97463.03;;;6.16;98.38
42601;BME280;28229;48.856;9.088;2023-03-26T00:08:57;97466.03;;;6.20;97.75
42601;BME280;28229;48.856;9.088;2023-03-26T00:11:26;97463.41;;;6.13;98.10
42601;BME280;28229;48.856;9.088;2023-03-26T00:13:52;97467.84;;;6.13;97.91
42601;BME280;28229;48.856;9.088;2023-03-26T00:16:23;97463.03;;;6.16;96.22
42601;BME280;28229;48.856;9.088;2023-03-26T00:18:50;97466.22;;;6.18;95.42
42601;BME280;28229;48.856;9.088;2023-03-26T00:21:19;97466.44;;;6.17;94.89
42601;BME280;28229;48.856;9.088;2023-03-26T00:23:46;97465.25;;;6.19;94.52
42601;BME280;28229;48.856;9.088;2023-03-26T00:26:14;97473.06;;;6.13;94.62
42601;BME280;28229;48.856;9.088;2023-03-26T00:28:42;97473.47;;;6.09;94.40
42601;BME280;28229;48.856;9.088;2023-03-26T00:31:12;97472.66;;;6.02;94.81
42601;BME280;28229;48.856;9.088;2023-03-26T00:33:39;97470.88;;;6.03;95.06
42601;BME280;28229;48.856;9.088;2023-03-26T00:36:11;97470.44;;;6.06;94.99
42601;BME280;28229;48.856;9.088;2023-03-26T00:38:43;97468.44;;;6.01;95.27
42601;BME280;28229;48.856;9.088;2023-03-26T00:41:16;97464.44;;;6.05;94.97
42601;BME280;28229;48.856;9.088;2023-03-26T00:43:49;97452.19;;;6.13;94.37
42601;BME280;28229;48.856;9.088;2023-03-26T00:46:16;97449.97;;;6.09;94.46
42601;BME280;28229;48.856;9.088;2023-03-26T00:48:43;97447.34;;;6.09;94.30
42601;BME280;28229;48.856;9.088;2023-03-26T00:51:12;97441.31;;;6.09;94.43
42601;BME280;28229;48.856;9.088;2023-03-26T00:53:44;97442.13;;;6.03;94.39
42601;BME280;28229;48.856;9.088;2023-03-26T00:56:12;97438.91;;;6.07;93.94
42601;BME280;28229;48.856;9.088;2023-03-26T00:58:38;97436.09;;;6.02;93.89
42601;BME280;28229;48.856;9.088;2023-03-26T01:01:10;97428.88;;;5.98;94.06
42601;BME280;28229;48.856;9.088;2023-03-26T01:03:41;97422.03;;;6.03;93.39
42601;BME280;28229;48.856;9.088;2023-03-26T01:06:19;97416.44;;;6.06;92.78
42601;BME280;28229;48.856;9.088;2023-03-26T01:08:49;97418.44;;;6.04;92.95
42601;BME280;28229;48.856;9.088;2023-03-26T01:11:19;97414.41;;;6.08;92.86
42601;BME280;28229;48.856;9.088;2023-03-26T01:16:25;97406.19;;;6.12;92.32
42601;BME280;28229;48.856;9.088;2023-03-26T01:18:53;97400.34;;;6.09;92.18
42601;BME280;28229;48.856;9.088;2023-03-26T01:21:26;97394.72;;;6.13;91.85
42601;BME280;28229;48.856;9.088;2023-03-26T01:23:59;97388.50;;;6.14;91.78
42601;BME280;28229;48.856;9.088;2023-03-26T01:32:05;97382.84;;;6.30;91.90
42601;BME280;28229;48.856;9.088;2023-03-26T01:43:23;97373.41;;;6.36;91.94
42601;BME280;28229;48.856;9.088;2023-03-26T01:45:52;97362.16;;;6.35;91.67
42601;BME280;28229;48.856;9.088;2023-03-26T01:48:18;97359.72;;;6.40;91.41
42601;BME280;28229;48.856;9.088;2023-03-26T01:50:44;97345.25;;;6.38;91.41
42601;BME280;28229;48.856;9.088;2023-03-26T01:53:12;97344.84;;;6.34;91.48
42601;BME280;28229;48.856;9.088;2023-03-26T01:55:45;97338.63;;;6.35;91.45
42601;BME280;28229;48.856;9.088;2023-03-26T01:58:28;97338.44;;;6.37;91.32
42601;BME280;28229;48.856;9.088;2023-03-26T02:03:38;97320.94;;;6.37;90.80
42601;BME280;28229;48.856;9.088;2023-03-26T02:06:18;97321.94;;;6.36;90.42
42601;BME280;28229;48.856;9.088;2023-03-26T02:08:56;97319.53;;;6.41;90.91
42601;BME280;28229;48.856;9.088;2023-03-26T02:11:24;97307.88;;;6.44;90.60
42601;BME280;28229;48.856;9.088;2023-03-26T02:13:50;97301.63;;;6.45;90.77
42601;BME280;28229;48.856;9.088;2023-03-26T02:16:19;97293.38;;;6.41;91.16
42601;BME280;28229;48.856;9.088;2023-03-26T02:18:47;97296.00;;;6.41;91.43
42601;BME280;28229;48.856;9.088;2023-03-26T02:21:19;97291.75;;;6.47;91.57
42601;BME280;28229;48.856;9.088;2023-03-26T02:23:48;97290.38;;;6.44;90.97
42601;BME280;28229;48.856;9.088;2023-03-26T02:26:18;97280.50;;;6.46;91.16
42601;BME280;28229;48.856;9.088;2023-03-26T02:28:59;97281.28;;;6.54;90.64
42601;BME280;28229;48.856;9.088;2023-03-26T02:31:26;97278.09;;;6.52;90.94
42601;BME280;28229;48.856;9.088;2023-03-26T02:33:55;97281.09;;;6.48;91.26
42601;BME280;28229;48.856;9.088;2023-03-26T02:36:22;97275.66;;;6.57;90.46
42601;BME280;28229;48.856;9.088;2023-03-26T02:38:55;97273.25;;;6.48;90.66
42601;BME280;28229;48.856;9.088;2023-03-26T02:41:23;97278.88;;;6.59;90.36
42601;BME280;28229;48.856;9.088;2023-03-26T02:44:03;97279.28;;;6.56;90.48
42601;BME280;28229;48.856;9.088;2023-03-26T02:46:48;97278.69;;;6.54;90.32
42601;BME280;28229;48.856;9.088;2023-03-26T02:49:41;97274.28;;;6.54;90.43
42601;BME280;28229;48.856;9.088;2023-03-26T02:52:10;97272.84;;;6.52;90.67
42601;BME280;28229;48.856;9.088;2023-03-26T02:54:37;97269.25;;;6.53;90.84
42601;BME280;28229;48.856;9.088;2023-03-26T02:57:16;97268.81;;;6.56;90.61
42601;BME280;28229;48.856;9.088;2023-03-26T03:00:01;97263.59;;;6.56;90.28
42601;BME280;28229;48.856;9.088;2023-03-26T03:02:37;97254.56;;;6.52;90.45
42601;BME280;28229;48.856;9.088;2023-03-26T03:05:26;97255.34;;;6.52;90.44
42601;BME280;28229;48.856;9.088;2023-03-26T03:08:14;97251.16;;;6.51;90.54
42601;BME280;28229;48.856;9.088;2023-03-26T03:11:02;97244.28;;;6.57;89.79
42601;BME280;28229;48.856;9.088;2023-03-26T03:13:39;97236.06;;;6.53;90.02
42601;BME280;28229;48.856;9.088;2023-03-26T03:16:06;97235.47;;;6.51;90.62
42601;BME280;28229;48.856;9.088;2023-03-26T03:18:32;97230.88;;;6.46;90.48
42601;BME280;28229;48.856;9.088;2023-03-26T03:20:59;97219.41;;;6.47;90.83
42601;BME280;28229;48.856;9.088;2023-03-26T03:23:26;97214.78;;;6.50;90.44
42601;BME280;28229;48.856;9.088;2023-03-26T03:25:58;97208.97;;;6.47;90.48
42601;BME280;28229;48.856;9.088;2023-03-26T03:28:24;97217.78;;;6.53;90.19
42601;BME280;28229;48.856;9.088;2023-03-26T03:30:51;97212.53;;;6.60;89.80
42601;BME280;28229;48.856;9.088;2023-03-26T03:33:28;97207.31;;;6.60;89.88
42601;BME280;28229;48.856;9.088;2023-03-26T03:35:54;97193.66;;;6.58;89.99
42601;BME280;28229;48.856;9.088;2023-03-26T03:38:20;97193.66;;;6.58;89.98
42601;BME280;28229;48.856;9.088;2023-03-26T03:40:49;97177.97;;;6.58;90.01
42601;BME280;28229;48.856;9.088;2023-03-26T03:43:17;97176.34;;;6.57;90.42
42601;BME280;28229;48.856;9.088;2023-03-26T03:45:58;97175.50;;;6.63;90.13
42601;BME280;28229;48.856;9.088;2023-03-26T03:48:32;97170.44;;;6.68;89.90
42601;BME280;28229;48.856;9.088;2023-03-26T03:50:58;97171.88;;;6.64;89.96
42601;BME280;28229;48.856;9.088;2023-03-26T03:53:29;97176.69;;;6.67;89.90
42601;BME280;28229;48.856;9.088;2023-03-26T03:55:58;97180.91;;;6.68;90.21
42601;BME280;28229;48.856;9.088;2023-03-26T03:58:44;97169.84;;;6.66;90.00
42601;BME280;28229;48.856;9.088;2023-03-26T04:01:14;97170.44;;;6.68;90.10
42601;BME280;28229;48.856;9.088;2023-03-26T04:03:56;97163.81;;;6.72;89.84
42601;BME280;28229;48.856;9.088;2023-03-26T04:06:26;97167.41;;;6.71;89.92
42601;BME280;28229;48.856;9.088;2023-03-26T04:08:55;97164.81;;;6.71;90.22
42601;BME280;28229;48.856;9.088;2023-03-26T04:11:22;97158.78;;;6.71;90.07
42601;BME280;28229;48.856;9.088;2023-03-26T04:14:06;97156.16;;;6.71;90.03
42601;BME280;28229;48.856;9.088;2023-03-26T04:16:47;97143.09;;;6.71;90.45
42601;BME280;28229;48.856;9.088;2023-03-26T04:19:15;97138.66;;;6.71;90.15
42601;BME280;28229;48.856;9.088;2023-03-26T04:21:42;97130.81;;;6.71;90.42
42601;BME280;28229;48.856;9.088;2023-03-26T04:24:10;97127.22;;;6.72;90.63
42601;BME280;28229;48.856;9.088;2023-03-26T04:27:12;97128.78;;;6.73;90.57
42601;BME280;28229;48.856;9.088;2023-03-26T04:29:43;97121.13;;;6.78;90.17
42601;BME280;28229;48.856;9.088;2023-03-26T04:32:24;97117.91;;;6.76;90.40
42601;BME280;28229;48.856;9.088;2023-03-26T04:34:56;97118.13;;;6.75;90.72
42601;BME280;28229;48.856;9.088;2023-03-26T04:37:29;97113.09;;;6.73;90.54
42601;BME280;28229;48.856;9.088;2023-03-26T04:40:14;97098.16;;;6.80;90.16
42601;BME280;28229;48.856;9.088;2023-03-26T04:43:15;97083.34;;;6.74;90.40
42601;BME280;28229;48.856;9.088;2023-03-26T04:46:02;97070.06;;;6.76;90.67
42601;BME280;28229;48.856;9.088;2023-03-26T04:48:33;97072.91;;;6.74;90.98
42601;BME280;28229;48.856;9.088;2023-03-26T04:50:59;97076.09;;;6.76;90.85
42601;BME280;28229;48.856;9.088;2023-03-26T04:53:26;97068.25;;;6.76;90.77
42601;BME280;28229;48.856;9.088;2023-03-26T04:56:23;97061.56;;;6.80;90.18
42601;BME280;28229;48.856;9.088;2023-03-26T04:59:13;97068.94;;;6.90;88.78
42601;BME280;28229;48.856;9.088;2023-03-26T05:01:41;97065.97;;;6.86;89.22
42601;BME280;28229;48.856;9.088;2023-03-26T05:04:12;97074.38;;;6.89;88.82
42601;BME280;28229;48.856;9.088;2023-03-26T05:06:39;97065.97;;;6.86;88.96
42601;BME280;28229;48.856;9.088;2023-03-26T05:09:15;97075.22;;;6.82;89.17
42601;BME280;28229;48.856;9.088;2023-03-26T05:12:02;97072.78;;;6.88;89.13
42601;BME280;28229;48.856;9.088;2023-03-26T05:14:37;97076.41;;;6.86;88.96
42601;BME280;28229;48.856;9.088;2023-03-26T05:17:06;97065.97;;;6.86;88.87
42601;BME280;28229;48.856;9.088;2023-03-26T05:19:37;97057.66;;;6.90;88.39
42601;BME280;28229;48.856;9.088;2023-03-26T05:22:04;97057.09;;;6.88;87.93
42601;BME280;28229;48.856;9.088;2023-03-26T05:24:34;97045.41;;;6.90;87.69
42601;BME280;28229;48.856;9.088;2023-03-26T05:27:03;97042.44;;;6.86;87.73
42601;BME280;28229;48.856;9.088;2023-03-26T05:29:36;97028.91;;;6.90;87.09
42601;BME280;28229;48.856;9.088;2023-03-26T05:32:03;97024.91;;;6.87;87.21
42601;BME280;28229;48.856;9.088;2023-03-26T05:34:29;97013.31;;;6.83;87.06
42601;BME280;28229;48.856;9.088;2023-03-26T05:36:55;97004.00;;;6.87;86.26
42601;BME280;28229;48.856;9.088;2023-03-26T05:39:45;97004.53;;;6.96;85.92
42601;BME280;28229;48.856;9.088;2023-03-26T05:42:34;97008.34;;;6.93;85.81
42601;BME280;28229;48.856;9.088;2023-03-26T05:45:20;97001.47;;;6.99;84.96
42601;BME280;28229;48.856;9.088;2023-03-26T05:47:47;97004.59;;;7.08;84.64
42601;BME280;28229;48.856;9.088;2023-03-26T05:50:15;96997.94;;;7.12;83.52
42601;BME280;28229;48.856;9.088;2023-03-26T05:52:42;96990.00;;;7.18;81.80
42601;BME280;28229;48.856;9.088;2023-03-26T05:55:28;96985.22;;;7.15;81.91
42601;BME280;28229;48.856;9.088;2023-03-26T05:58:12;96979.19;;;7.15;81.91
42601;BME280;28229;48.856;9.088;2023-03-26T06:00:59;96971.34;;;7.15;81.59
42601;BME280;28229;48.856;9.088;2023-03-26T06:03:42;96968.06;;;7.19;81.19
42601;BME280;28229;48.856;9.088;2023-03-26T06:06:19;96958.16;;;7.21;79.28
42601;BME280;28229;48.856;9.088;2023-03-26T06:08:53;96952.72;;;7.23;78.41
42601;BME280;28229;48.856;9.088;2023-03-26T06:11:19;96936.38;;;7.28;78.33
42601;BME280;28229;48.856;9.088;2023-03-26T06:13:46;96932.28;;;7.32;79.49
42601;BME280;28229;48.856;9.088;2023-03-26T06:16:13;96929.88;;;7.30;79.98
42601;BME280;28229;48.856;9.088;2023-03-26T06:18:47;96919.22;;;7.32;78.56
42601;BME280;28229;48.856;9.088;2023-03-26T06:21:48;96917.38;;;7.32;77.62
42601;BME280;28229;48.856;9.088;2023-03-26T06:24:21;96909.75;;;7.31;78.08
42601;BME280;28229;48.856;9.088;2023-03-26T06:27:04;96905.56;;;7.30;77.56
42601;BME280;28229;48.856;9.088;2023-03-26T06:29:54;96904.16;;;7.27;77.47
42601;BME280;28229;48.856;9.088;2023-03-26T06:32:38;96906.69;;;7.34;76.50
42601;BME280;28229;48.856;9.088;2023-03-26T06:35:11;96906.97;;;7.44;76.26
42601;BME280;28229;48.856;9.088;2023-03-26T06:37:37;96892.28;;;7.43;76.81
42601;BME280;28229;48.856;9.088;2023-03-26T06:40:04;96898.34;;;7.43;76.21
42601;BME280;28229;48.856;9.088;2023-03-26T06:42:49;96906.41;;;7.42;75.98
42601;BME280;28229;48.856;9.088;2023-03-26T06:45:41;96899.84;;;7.51;75.73
42601;BME280;28229;48.856;9.088;2023-03-26T06:48:26;96882.97;;;7.47;76.35
42601;BME280;28229;48.856;9.088;2023-03-26T06:51:10;96894.47;;;7.46;77.33
42601;BME280;28229;48.856;9.088;2023-03-26T06:53:55;96896.84;;;7.48;78.67
42601;BME280;28229;48.856;9.088;2023-03-26T06:56:44;96892.63;;;7.47;74.40
42601;BME280;28229;48.856;9.088;2023-03-26T06:59:40;96880.03;;;7.55;79.75
42601;BME280;28229;48.856;9.088;2023-03-26T07:02:25;96885.97;;;7.62;82.55
42601;BME280;28229;48.856;9.088;2023-03-26T07:05:10;96880.59;;;7.57;80.22
42601;BME280;28229;48.856;9.088;2023-03-26T07:07:55;96865.72;;;7.58;78.13
42601;BME280;28229;48.856;9.088;2023-03-26T07:10:48;96869.56;;;7.55;75.51
42601;BME280;28229;48.856;9.088;2023-03-26T07:13:42;96874.22;;;7.53;76.38
42601;BME280;28229;48.856;9.088;2023-03-26T07:16:26;96871.47;;;7.48;76.28
42601;BME280;28229;48.856;9.088;2023-03-26T07:19:12;96857.81;;;7.46;77.19
42601;BME280;28229;48.856;9.088;2023-03-26T07:21:40;96865.75;;;7.39;77.68
42601;BME280;28229;48.856;9.088;2023-03-26T07:24:30;96824.72;;;7.40;79.83
42601;BME280;28229;48.856;9.088;2023-03-26T07:30:07;96820.50;;;7.39;78.53
42601;BME280;28229;48.856;9.088;2023-03-26T07:33:05;96823.69;;;7.41;80.73
42601;BME280;28229;48.856;9.088;2023-03-26T07:35:47;96827.63;;;7.32;80.46
42601;BME280;28229;48.856;9.088;2023-03-26T07:41:45;96837.97;;;7.27;82.22
42601;BME280;28229;48.856;9.088;2023-03-26T07:47:42;96822.00;;;7.16;83.28
42601;BME280;28229;48.856;9.088;2023-03-26T07:50:25;96801.09;;;7.16;85.08
42601;BME280;28229;48.856;9.088;2023-03-26T07:53:04;96799.50;;;7.15;86.03
42601;BME280;28229;48.856;9.088;2023-03-26T08:17:06;96776.97;;;7.14;92.33
42601;BME280;28229;48.856;9.088;2023-03-26T08:19:47;96778.00;;;7.13;92.36
42601;BME280;28229;48.856;9.088;2023-03-26T08:22:33;96769.56;;;7.11;95.63
42601;BME280;28229;48.856;9.088;2023-03-26T08:25:18;96770.53;;;7.29;97.18
42601;BME280;28229;48.856;9.088;2023-03-26T08:27:53;96761.00;;;7.46;96.51
42601;BME280;28229;48.856;9.088;2023-03-26T08:30:25;96757.47;;;7.40;95.05
42601;BME280;28229;48.856;9.088;2023-03-26T08:33:28;96759.41;;;7.57;95.29
42601;BME280;28229;48.856;9.088;2023-03-26T08:35:48;96766.34;;;7.51;93.86
42601;BME280;28229;48.856;9.088;2023-03-26T08:38:18;96749.53;;;7.47;93.23
42601;BME280;28229;48.856;9.088;2023-03-26T09:00:16;96757.56;;;7.34;98.08
42601;BME280;28229;48.856;9.088;2023-03-26T09:03:18;96753.38;;;7.33;99.29
42601;BME280;28229;48.856;9.088;2023-03-26T09:14:20;96758.72;;;7.50;98.78
42601;BME280;28229;48.856;9.088;2023-03-26T09:28:03;96733.84;;;7.82;96.71
42601;BME280;28229;48.856;9.088;2023-03-26T09:35:52;96733.00;;;8.06;98.60
42601;BME280;28229;48.856;9.088;2023-03-26T09:44:07;96730.94;;;8.60;96.95
42601;BME280;28229;48.856;9.088;2023-03-26T09:52:24;96742.28;;;8.77;92.92
42601;BME280;28229;48.856;9.088;2023-03-26T09:55:17;96731.66;;;8.84;90.46
42601;BME280;28229;48.856;9.088;2023-03-26T10:00:57;96720.63;;;9.16;90.98
42601;BME280;28229;48.856;9.088;2023-03-26T10:03:41;96720.00;;;9.26;89.21
42601;BME280;28229;48.856;9.088;2023-03-26T10:06:17;96716.81;;;9.41;89.13
42601;BME280;28229;48.856;9.088;2023-03-26T10:14:47;96711.53;;;9.91;87.59
42601;BME280;28229;48.856;9.088;2023-03-26T10:17:33;96717.47;;;10.26;84.82
42601;BME280;28229;48.856;9.088;2023-03-26T10:22:55;96717.56;;;10.80;79.53
42601;BME280;28229;48.856;9.088;2023-03-26T10:25:59;96716.34;;;11.20;84.25
42601;BME280;28229;48.856;9.088;2023-03-26T10:36:34;96702.56;;;11.46;68.08
42601;BME280;28229;48.856;9.088;2023-03-26T10:39:12;96704.88;;;11.79;64.57
42601;BME280;28229;48.856;9.088;2023-03-26T10:50:30;96720.28;;;12.56;59.00
42601;BME280;28229;48.856;9.088;2023-03-26T10:53:02;96724.22;;;12.48;56.48
42601;BME280;28229;48.856;9.088;2023-03-26T10:55:45;96715.28;;;12.60;57.81
42601;BME280;28229;48.856;9.088;2023-03-26T10:58:17;96713.22;;;12.82;56.86
42601;BME280;28229;48.856;9.088;2023-03-26T11:01:00;96713.78;;;13.15;56.76
42601;BME280;28229;48.856;9.088;2023-03-26T11:03:50;96709.56;;;13.04;54.64
42601;BME280;28229;48.856;9.088;2023-03-26T11:06:36;96703.25;;;13.30;54.82
42601;BME280;28229;48.856;9.088;2023-03-26T11:12:34;96699.56;;;13.42;54.36
42601;BME280;28229;48.856;9.088;2023-03-26T11:23:36;96690.84;;;13.46;52.97
42601;BME280;28229;48.856;9.088;2023-03-26T11:26:28;96686.88;;;13.54;50.64
42601;BME280;28229;48.856;9.088;2023-03-26T11:34:34;96676.84;;;13.05;51.36
42601;BME280;28229;48.856;9.088;2023-03-26T11:37:05;96686.84;;;12.92;52.33
42601;BME280;28229;48.856;9.088;2023-03-26T11:39:44;96692.66;;;12.94;51.34
42601;BME280;28229;48.856;9.088;2023-03-26T11:42:14;96688.94;;;12.90;50.62
42601;BME280;28229;48.856;9.088;2023-03-26T11:44:48;96692.38;;;12.81;52.51
42601;BME280;28229;48.856;9.088;2023-03-26T11:47:22;96701.56;;;12.57;54.22
42601;BME280;28229;48.856;9.088;2023-03-26T11:49:52;96699.41;;;12.49;56.24
42601;BME280;28229;48.856;9.088;2023-03-26T11:52:20;96689.66;;;12.40;58.91
42601;BME280;28229;48.856;9.088;2023-03-26T11:54:46;96689.28;;;12.15;59.73
42601;BME280;28229;48.856;9.088;2023-03-26T11:57:19;96695.81;;;12.03;62.16
42601;BME280;28229;48.856;9.088;2023-03-26T11:59:54;96705.50;;;11.92;63.09
42601;BME280;28229;48.856;9.088;2023-03-26T12:02:30;96724.44;;;11.89;65.64
42601;BME280;28229;48.856;9.088;2023-03-26T12:08:02;96732.75;;;11.00;70.48
42601;BME280;28229;48.856;9.088;2023-03-26T12:10:43;96706.28;;;10.85;69.96
42601;BME280;28229;48.856;9.088;2023-03-26T12:13:58;96706.59;;;11.21;72.28
42601;BME280;28229;48.856;9.088;2023-03-26T12:16:22;96709.56;;;11.67;71.12
42601;BME280;28229;48.856;9.088;2023-03-26T12:19:04;96703.47;;;12.04;68.39
42601;BME280;28229;48.856;9.088;2023-03-26T12:21:45;96699.69;;;12.43;70.11
42601;BME280;28229;48.856;9.088;2023-03-26T12:24:30;96686.56;;;12.79;63.87
42601;BME280;28229;48.856;9.088;2023-03-26T12:27:27;96690.81;;;13.10;62.93
42601;BME280;28229;48.856;9.088;2023-03-26T12:30:51;96687.66;;;13.24;60.61
42601;BME280;28229;48.856;9.088;2023-03-26T12:33:00;96683.19;;;13.45;61.01
42601;BME280;28229;48.856;9.088;2023-03-26T12:35:31;96688.19;;;13.36;60.04
42601;BME280;28229;48.856;9.088;2023-03-26T12:41:06;96670.75;;;13.04;56.66
42601;BME280;28229;48.856;9.088;2023-03-26T12:43:40;96667.84;;;13.11;56.95
42601;BME280;28229;48.856;9.088;2023-03-26T12:48:54;96652.50;;;13.69;52.80
42601;BME280;28229;48.856;9.088;2023-03-26T12:51:47;96658.94;;;14.13;53.98
42601;BME280;28229;48.856;9.088;2023-03-26T12:54:35;96644.84;;;14.33;53.78
42601;BME280;28229;48.856;9.088;2023-03-26T12:57:59;96645.94;;;14.22;52.83
42601;BME280;28229;48.856;9.088;2023-03-26T13:00:25;96643.75;;;14.39;52.93
42601;BME280;28229;48.856;9.088;2023-03-26T13:08:38;96634.00;;;15.14;48.59
42601;BME280;28229;48.856;9.088;2023-03-26T13:11:19;96623.72;;;15.07;46.73
42601;BME280;28229;48.856;9.088;2023-03-26T13:14:03;96624.00;;;14.71;48.02
42601;BME280;28229;48.856;9.088;2023-03-26T13:19:08;96624.72;;;14.37;48.23
42601;BME280;28229;48.856;9.088;2023-03-26T13:21:52;96628.06;;;14.03;48.61
42601;BME280;28229;48.856;9.088;2023-03-26T13:29:41;96607.31;;;14.26;48.31
42601;BME280;28229;48.856;9.088;2023-03-26T13:43:05;96612.47;;;14.46;50.16
42601;BME280;28229;48.856;9.088;2023-03-26T13:48:24;96608.88;;;14.32;48.96
42601;BME280;28229;48.856;9.088;2023-03-26T13:50:59;96603.97;;;14.55;49.67
42601;BME280;28229;48.856;9.088;2023-03-26T13:53:33;96600.16;;;14.71;50.16
42601;BME280;28229;48.856;9.088;2023-03-26T13:56:03;96597.75;;;14.75;49.04
42601;BME280;28229;48.856;9.088;2023-03-26T13:58:49;96595.97;;;14.65;48.51
42601;BME280;28229;48.856;9.088;2023-03-26T14:01:27;96596.03;;;14.55;48.52
42601;BME280;28229;48.856;9.088;2023-03-26T14:04:22;96591.88;;;14.38;49.25
42601;BME280;28229;48.856;9.088;2023-03-26T14:07:11;96585.56;;;14.34;48.82
42601;BME280;28229;48.856;9.088;2023-03-26T14:10:06;96581.34;;;14.33;49.15
42601;BME280;28229;48.856;9.088;2023-03-26T14:18:30;96578.81;;;14.13;51.24
42601;BME280;28229;48.856;9.088;2023-03-26T14:29:30;96599.72;;;13.39;50.28
42601;BME280;28229;48.856;9.088;2023-03-26T14:41:08;96628.72;;;10.33;56.73
42601;BME280;28229;48.856;9.088;2023-03-26T14:46:52;96644.81;;;9.53;63.62
42601;BME280;28229;48.856;9.088;2023-03-26T14:49:39;96646.81;;;9.46;64.32
42601;BME280;28229;48.856;9.088;2023-03-26T14:55:14;96643.84;;;9.21;66.07
42601;BME280;28229;48.856;9.088;2023-03-26T14:57:53;96651.16;;;9.19;67.02
42601;BME280;28229;48.856;9.088;2023-03-26T15:15:20;96664.75;;;8.53;75.69
42601;BME280;28229;48.856;9.088;2023-03-26T15:35:52;96703.44;;;7.70;82.65
42601;BME280;28229;48.856;9.088;2023-03-26T15:40:59;96683.06;;;7.60;82.43
42601;BME280;28229;48.856;9.088;2023-03-26T15:44:26;96684.88;;;7.48;82.51
42601;BME280;28229;48.856;9.088;2023-03-26T15:49:44;96657.03;;;7.30;82.92
42601;BME280;28229;48.856;9.088;2023-03-26T15:52:22;96654.97;;;7.32;84.62
42601;BME280;28229;48.856;9.088;2023-03-26T15:57:33;96665.31;;;7.27;85.31
42601;BME280;28229;48.856;9.088;2023-03-26T16:00:30;96653.16;;;7.20;86.27
42601;BME280;28229;48.856;9.088;2023-03-26T16:14:18;96653.59;;;7.41;84.64
42601;BME280;28229;48.856;9.088;2023-03-26T16:16:53;96652.81;;;7.40;83.49
42601;BME280;28229;48.856;9.088;2023-03-26T16:21:59;96667.72;;;7.40;82.37
42601;BME280;28229;48.856;9.088;2023-03-26T16:24:31;96674.63;;;7.34;84.16
42601;BME280;28229;48.856;9.088;2023-03-26T16:27:25;96674.88;;;7.33;85.11
42601;BME280;28229;48.856;9.088;2023-03-26T16:32:51;96687.63;;;7.41;83.22
42601;BME280;28229;48.856;9.088;2023-03-26T16:35:39;96699.66;;;7.30;83.80
42601;BME280;28229;48.856;9.088;2023-03-26T16:38:13;96703.41;;;7.22;83.42
42601;BME280;28229;48.856;9.088;2023-03-26T16:41:04;96708.09;;;7.20;83.30
42601;BME280;28229;48.856;9.088;2023-03-26T16:43:46;96709.66;;;7.21;82.69
42601;BME280;28229;48.856;9.088;2023-03-26T16:46:55;96716.81;;;7.14;83.23
42601;BME280;28229;48.856;9.088;2023-03-26T16:52:05;96718.75;;;7.07;82.50
42601;BME280;28229;48.856;9.088;2023-03-26T16:54:50;96728.63;;;7.05;82.74
42601;BME280;28229;48.856;9.088;2023-03-26T16:57:24;96731.25;;;7.05;83.16
42601;BME280;28229;48.856;9.088;2023-03-26T17:05:36;96738.16;;;6.99;83.97
42601;BME280;28229;48.856;9.088;2023-03-26T17:08:13;96735.63;;;6.93;84.22
42601;BME280;28229;48.856;9.088;2023-03-26T17:13:49;96736.69;;;6.92;82.86
42601;BME280;28229;48.856;9.088;2023-03-26T17:16:24;96738.47;;;6.91;83.69
42601;BME280;28229;48.856;9.088;2023-03-26T17:21:52;96748.59;;;6.88;82.93
42601;BME280;28229;48.856;9.088;2023-03-26T17:24:37;96737.34;;;6.87;82.93
42601;BME280;28229;48.856;9.088;2023-03-26T17:36:12;96733.38;;;6.84;83.75
42601;BME280;28229;48.856;9.088;2023-03-26T17:41:07;96731.31;;;6.86;82.36
42601;BME280;28229;48.856;9.088;2023-03-26T17:43:36;96730.84;;;6.90;82.81
42601;BME280;28229;48.856;9.088;2023-03-26T17:46:16;96733.72;;;6.88;82.67
42601;BME280;28229;48.856;9.088;2023-03-26T17:48:51;96732.91;;;6.88;82.66
42601;BME280;28229;48.856;9.088;2023-03-26T17:51:51;96734.16;;;6.85;83.08
42601;BME280;28229;48.856;9.088;2023-03-26T17:54:27;96727.78;;;6.81;83.20
42601;BME280;28229;48.856;9.088;2023-03-26T17:57:01;96733.09;;;6.74;83.56
42601;BME280;28229;48.856;9.088;2023-03-26T17:59:30;96732.88;;;6.76;83.76
42601;BME280;28229;48.856;9.088;2023-03-26T18:01:59;96735.25;;;6.77;83.42
42601;BME280;28229;48.856;9.088;2023-03-26T18:04:34;96747.16;;;6.73;83.71
42601;BME280;28229;48.856;9.088;2023-03-26T18:15:43;96738.66;;;6.47;84.86
42601;BME280;28229;48.856;9.088;2023-03-26T18:18:22;96732.72;;;6.40;85.01
42601;BME280;28229;48.856;9.088;2023-03-26T18:20:52;96735.19;;;6.35;85.76
42601;BME280;28229;48.856;9.088;2023-03-26T18:23:28;96735.53;;;6.39;85.96
42601;BME280;28229;48.856;9.088;2023-03-26T18:26:14;96742.44;;;6.33;86.59
42601;BME280;28229;48.856;9.088;2023-03-26T18:28:44;96745.94;;;6.27;87.04
42601;BME280;28229;48.856;9.088;2023-03-26T18:31:25;96742.66;;;6.32;86.99
42601;BME280;28229;48.856;9.088;2023-03-26T18:33:55;96737.38;;;6.20;87.51
42601;BME280;28229;48.856;9.088;2023-03-26T18:36:26;96738.53;;;6.24;87.14
42601;BME280;28229;48.856;9.088;2023-03-26T18:38:58;96743.16;;;6.22;87.06
42601;BME280;28229;48.856;9.088;2023-03-26T18:41:29;96736.38;;;6.21;86.96
42601;BME280;28229;48.856;9.088;2023-03-26T18:44:00;96732.56;;;6.17;86.92
42601;BME280;28229;48.856;9.088;2023-03-26T18:46:27;96724.84;;;6.10;87.24
42601;BME280;28229;48.856;9.088;2023-03-26T18:48:53;96725.25;;;6.07;86.31
42601;BME280;28229;48.856;9.088;2023-03-26T18:51:20;96733.59;;;6.16;85.74
42601;BME280;28229;48.856;9.088;2023-03-26T18:53:50;96734.47;;;6.09;85.74
42601;BME280;28229;48.856;9.088;2023-03-26T18:58:57;96736.34;;;6.02;86.92
42601;BME280;28229;48.856;9.088;2023-03-26T19:01:29;96732.59;;;5.98;86.46
42601;BME280;28229;48.856;9.088;2023-03-26T19:04:01;96714.09;;;6.00;86.57
42601;BME280;28229;48.856;9.088;2023-03-26T19:06:32;96726.00;;;5.96;86.19
42601;BME280;28229;48.856;9.088;2023-03-26T19:09:02;96725.59;;;5.92;85.83
42601;BME280;28229;48.856;9.088;2023-03-26T19:11:31;96735.78;;;6.00;85.50